createdAt,value
2022-11-07T00:04:38.559Z,9.55
2022-11-07T00:09:32.983Z,7.80
2022-11-07T00:14:27.742Z,7.25
2022-11-07T00:19:22.466Z,6.82
2022-11-07T00:24:18.156Z,7.07
2022-11-07T00:29:18.432Z,7.07
2022-11-07T00:34:11.842Z,7.55
2022-11-07T00:39:06.276Z,6.93
2022-11-07T00:44:04.260Z,6.55
2022-11-07T00:48:58.685Z,6.25
2022-11-07T00:53:52.614Z,7.10
2022-11-07T00:58:46.577Z,6.20
2022-11-07T01:03:57.942Z,7.35
2022-11-07T01:08:52.275Z,6.97
2022-11-07T01:13:46.207Z,7.40
2022-11-07T01:18:40.289Z,6.00
2022-11-07T01:23:34.247Z,6.45
2022-11-07T01:28:27.300Z,5.60
2022-11-07T01:33:21.317Z,5.15
2022-11-07T01:38:15.287Z,5.20
2022-11-07T01:43:11.415Z,5.53
2022-11-07T01:48:06.430Z,6.28
2022-11-07T01:53:00.599Z,4.85
2022-11-07T02:03:18.156Z,5.30
2022-11-07T02:08:28.136Z,6.03
2022-11-07T02:13:29.448Z,6.43
2022-11-07T02:18:23.751Z,6.47
2022-11-07T02:23:51.460Z,6.50
2022-11-07T02:28:46.305Z,6.35
2022-11-07T02:33:40.026Z,6.72
2022-11-07T02:38:36.608Z,5.85
2022-11-07T02:43:31.491Z,5.65
2022-11-07T02:48:31.968Z,5.25
2022-11-07T02:53:25.347Z,5.30
2022-11-07T02:58:19.749Z,4.95
2022-11-07T03:03:13.932Z,4.57
2022-11-07T03:08:08.191Z,4.53
2022-11-07T03:13:02.915Z,3.50
2022-11-07T03:17:57.390Z,4.32
2022-11-07T03:22:51.425Z,4.28
2022-11-07T03:28:07.742Z,4.18
2022-11-07T03:33:01.444Z,4.38
2022-11-07T03:37:59.648Z,4.30
2022-11-07T03:42:53.584Z,4.75
2022-11-07T03:47:47.865Z,4.55
2022-11-07T03:52:40.993Z,5.13
2022-11-07T03:57:35.038Z,4.45
2022-11-07T04:02:29.583Z,4.82
2022-11-07T04:07:23.711Z,4.43
2022-11-07T04:12:36.605Z,5.10
2022-11-07T04:17:30.963Z,4.32
2022-11-07T04:22:24.864Z,4.38
2022-11-07T04:27:37.331Z,4.30
2022-11-07T04:32:31.266Z,3.97
2022-11-07T04:37:24.000Z,4.00
2022-11-07T04:42:18.111Z,3.53
2022-11-07T04:47:11.967Z,4.10
2022-11-07T04:52:06.264Z,3.50
2022-11-07T05:01:53.382Z,3.30
2022-11-07T05:06:48.674Z,2.97
2022-11-07T05:11:42.132Z,3.20
2022-11-07T05:16:35.979Z,3.45
2022-11-07T05:21:30.021Z,3.30
2022-11-07T05:26:23.758Z,3.13
2022-11-07T05:36:18.532Z,3.20
2022-11-07T05:41:12.352Z,2.80
2022-11-07T05:46:05.829Z,3.20
2022-11-07T05:50:59.434Z,3.25
2022-11-07T05:55:53.441Z,3.70
2022-11-07T06:00:47.818Z,3.70
2022-11-07T06:05:42.278Z,3.97
2022-11-07T06:10:37.098Z,2.88
2022-11-07T06:15:32.334Z,3.00
2022-11-07T06:20:25.895Z,3.50
2022-11-07T06:30:14.461Z,3.37
2022-11-07T06:35:09.155Z,3.78
2022-11-07T06:40:02.957Z,3.33
2022-11-07T06:44:56.960Z,3.28
2022-11-07T06:49:50.363Z,3.50
2022-11-07T06:54:45.332Z,3.58
2022-11-07T06:59:38.566Z,3.42
2022-11-07T07:09:26.116Z,4.72
2022-11-07T07:14:19.921Z,5.78
2022-11-07T07:24:08.225Z,5.90
2022-11-07T07:29:02.323Z,6.32
2022-11-07T07:33:55.746Z,7.00
2022-11-07T07:38:50.548Z,7.85
2022-11-07T07:43:44.141Z,6.95
2022-11-07T07:53:30.255Z,7.70
2022-11-07T07:58:25.390Z,8.18
2022-11-07T08:03:19.806Z,9.07
2022-11-07T08:08:14.209Z,10.73
2022-11-07T08:13:08.502Z,11.77
2022-11-07T08:18:02.868Z,11.00
2022-11-07T08:23:04.464Z,12.07
2022-11-07T08:27:57.496Z,11.23
2022-11-07T08:32:51.429Z,11.98
2022-11-07T08:37:44.972Z,12.63
2022-11-07T08:42:38.970Z,10.65
2022-11-07T08:47:32.060Z,11.85
2022-11-07T08:57:19.471Z,12.85
2022-11-07T09:07:27.746Z,12.82
2022-11-07T09:12:21.206Z,14.07
2022-11-07T09:22:07.439Z,13.77
2022-11-07T09:27:05.702Z,12.38
2022-11-07T09:32:05.048Z,12.13
2022-11-07T09:37:06.289Z,13.13
2022-11-07T09:42:13.316Z,12.43
2022-11-07T09:47:17.489Z,13.82
2022-11-07T09:52:19.742Z,13.85
2022-11-07T09:57:17.343Z,13.25
2022-11-07T10:02:17.421Z,13.85
2022-11-07T10:07:26.919Z,13.15
2022-11-07T10:12:43.243Z,13.20
2022-11-07T10:17:53.862Z,13.02
2022-11-07T10:23:16.427Z,11.68
2022-11-07T10:28:18.819Z,13.25
2022-11-07T10:33:39.180Z,11.60
2022-11-07T10:38:34.993Z,12.05
2022-11-07T10:43:39.047Z,12.55
2022-11-07T10:48:33.672Z,12.07
2022-11-07T10:53:27.054Z,14.13
2022-11-07T10:58:27.143Z,12.57
2022-11-07T11:03:43.179Z,13.52
2022-11-07T11:08:39.490Z,13.60
2022-11-07T11:13:35.023Z,13.25
2022-11-07T11:18:28.862Z,14.57
2022-11-07T11:28:43.901Z,14.30
2022-11-07T11:33:46.016Z,14.82
2022-11-07T11:38:59.248Z,15.25
2022-11-07T11:44:17.156Z,16.85
2022-11-07T11:49:36.701Z,16.67
2022-11-07T11:54:30.681Z,16.65
2022-11-07T11:59:55.140Z,16.38
2022-11-07T12:04:59.756Z,15.60
2022-11-07T12:10:15.391Z,16.50
2022-11-07T12:15:37.057Z,16.63
2022-11-07T12:20:30.098Z,15.85
2022-11-07T12:25:51.363Z,16.65
2022-11-07T12:31:13.292Z,15.32
2022-11-07T12:36:26.463Z,16.48
2022-11-07T12:41:25.305Z,17.55
2022-11-07T12:46:23.824Z,19.05
2022-11-07T12:51:26.036Z,19.25
2022-11-07T12:56:23.588Z,19.07
2022-11-07T13:01:21.107Z,19.42
2022-11-07T13:06:33.253Z,16.88
2022-11-07T13:12:08.414Z,16.90
2022-11-07T13:17:20.999Z,17.58
2022-11-07T13:22:14.145Z,16.17
2022-11-07T13:27:25.158Z,17.80
2022-11-07T13:32:19.544Z,17.10
2022-11-07T13:37:27.961Z,15.20
2022-11-07T13:42:30.339Z,16.95
2022-11-07T13:47:34.885Z,16.38
2022-11-07T13:52:37.120Z,15.98
2022-11-07T13:57:38.580Z,16.67
2022-11-07T14:02:34.355Z,15.30
2022-11-07T14:07:31.880Z,14.63
2022-11-07T14:12:24.749Z,15.13
2022-11-07T14:22:25.283Z,14.88
2022-11-07T14:27:19.934Z,15.45
2022-11-07T14:32:17.441Z,14.07
2022-11-07T14:37:14.507Z,14.98
2022-11-07T14:42:08.124Z,15.98
2022-11-07T14:51:55.932Z,16.00
2022-11-07T14:56:53.461Z,15.68
2022-11-07T15:02:19.519Z,15.20
2022-11-07T15:07:24.080Z,16.02
2022-11-07T15:12:26.477Z,15.75
2022-11-07T15:17:25.347Z,16.93
2022-11-07T15:22:28.969Z,18.42
2022-11-07T15:27:28.720Z,18.98
2022-11-07T15:32:27.875Z,18.95
2022-11-07T15:37:23.283Z,19.70
2022-11-07T15:42:16.121Z,19.10
2022-11-07T15:47:18.946Z,20.48
2022-11-07T15:52:11.720Z,20.00
2022-11-07T15:57:06.359Z,20.40
2022-11-07T16:02:00.862Z,20.15
2022-11-07T16:06:54.189Z,19.08
2022-11-07T16:11:46.944Z,17.90
2022-11-07T16:16:41.860Z,18.80
2022-11-07T16:21:36.100Z,19.70
2022-11-07T16:26:29.960Z,31.20
2022-11-07T16:31:23.442Z,28.48
2022-11-07T16:36:29.408Z,22.83
2022-11-07T16:41:23.295Z,28.15
2022-11-07T16:46:18.756Z,28.33
2022-11-07T16:51:17.662Z,51.47
2022-11-07T16:56:21.095Z,30.40
2022-11-07T17:01:14.641Z,25.20
2022-11-07T17:06:33.102Z,28.55
2022-11-07T17:11:27.538Z,46.03
2022-11-07T17:16:26.122Z,39.55
2022-11-07T17:21:28.227Z,23.98
2022-11-07T17:26:22.968Z,23.17
2022-11-07T17:31:16.597Z,27.58
2022-11-07T17:36:37.517Z,29.90
2022-11-07T17:41:32.626Z,26.80
2022-11-07T17:46:30.450Z,26.63
2022-11-07T17:51:27.038Z,29.65
2022-11-07T17:56:40.615Z,29.33
2022-11-07T18:01:36.615Z,30.33
2022-11-07T18:06:30.572Z,32.75
2022-11-07T18:11:25.563Z,31.10
2022-11-07T18:16:21.027Z,31.48
2022-11-07T18:21:13.891Z,32.08
2022-11-07T18:26:09.469Z,31.42
2022-11-07T18:31:12.411Z,34.50
2022-11-07T18:36:08.637Z,33.90
2022-11-07T18:41:05.270Z,34.90
2022-11-07T18:45:58.882Z,38.15
2022-11-07T18:50:52.455Z,35.65
2022-11-07T18:56:00.836Z,35.05
2022-11-07T19:00:55.154Z,35.40
2022-11-07T19:05:50.402Z,34.05
2022-11-07T19:10:44.947Z,32.90
2022-11-07T19:15:40.323Z,31.30
2022-11-07T19:20:33.814Z,33.75
2022-11-07T19:25:26.566Z,33.13
2022-11-07T19:30:20.156Z,38.83
2022-11-07T19:35:14.111Z,47.03
2022-11-07T19:40:10.658Z,50.10
2022-11-07T19:45:04.071Z,52.75
2022-11-07T19:54:52.632Z,52.25
2022-11-07T19:59:46.517Z,45.20
2022-11-07T20:09:34.308Z,37.35
2022-11-07T20:14:28.607Z,37.67
2022-11-07T20:19:21.600Z,34.58
2022-11-07T20:34:02.613Z,40.35
2022-11-07T20:38:56.832Z,38.63
2022-11-07T20:44:04.892Z,39.90
2022-11-07T20:49:02.052Z,39.33
2022-11-07T20:53:55.250Z,38.28
2022-11-07T20:58:49.664Z,36.80
2022-11-07T21:03:43.522Z,35.30
2022-11-07T21:08:37.492Z,35.85
2022-11-07T21:13:30.710Z,35.08
2022-11-07T21:18:24.757Z,36.22
2022-11-07T21:23:18.662Z,36.58
2022-11-07T21:28:19.923Z,44.22
2022-11-07T21:33:14.746Z,46.38
2022-11-07T21:38:09.898Z,41.78
2022-11-07T21:43:04.309Z,37.15
2022-11-07T21:47:58.437Z,32.85
2022-11-07T21:52:52.619Z,31.80
2022-11-07T22:02:43.235Z,31.08
2022-11-07T22:07:37.660Z,29.42
2022-11-07T22:12:31.208Z,29.15
2022-11-07T22:17:25.082Z,29.77
2022-11-07T22:22:18.193Z,27.85
2022-11-07T22:27:11.934Z,26.75
2022-11-07T22:32:06.183Z,27.83
2022-11-07T22:37:00.258Z,27.25
2022-11-07T22:41:54.330Z,26.77
2022-11-07T22:46:48.640Z,27.98
2022-11-07T22:51:42.658Z,25.40
2022-11-07T22:56:36.785Z,26.15
2022-11-07T23:01:35.724Z,28.13
2022-11-07T23:06:29.756Z,29.10
2022-11-07T23:11:45.218Z,29.65
2022-11-07T23:16:42.746Z,27.75
2022-11-07T23:21:37.061Z,26.98
2022-11-07T23:26:34.447Z,27.02
2022-11-07T23:31:28.512Z,24.98
2022-11-07T23:36:22.053Z,24.35
2022-11-07T23:41:19.423Z,23.63
2022-11-07T23:46:32.427Z,24.20
2022-11-07T23:51:26.129Z,23.85
2022-11-07T23:56:20.580Z,26.38
